createdAt,value
2018-09-19T00:00:22.050Z,57.04
2018-09-19T00:02:50.591Z,56.63
2018-09-19T00:05:19.050Z,57.18
2018-09-19T00:07:47.480Z,56.12
2018-09-19T00:10:15.962Z,56.91
2018-09-19T00:12:44.387Z,57.77
2018-09-19T00:15:12.874Z,57.48
2018-09-19T00:17:41.325Z,56.57
2018-09-19T00:20:09.792Z,56.84
2018-09-19T00:22:38.223Z,55.62
2018-09-19T00:25:06.639Z,57.91
2018-09-19T00:27:35.192Z,56.96
2018-09-19T00:30:03.623Z,56.35
2018-09-19T00:32:31.998Z,57.13
2018-09-19T00:35:00.492Z,57.58
2018-09-19T00:37:28.949Z,57.60
2018-09-19T00:39:57.379Z,58.45
2018-09-19T00:42:25.807Z,58.09
2018-09-19T00:44:54.341Z,57.02
2018-09-19T00:47:23.012Z,58.90
2018-09-19T00:49:51.477Z,58.08
2018-09-19T00:52:19.884Z,57.92
2018-09-19T00:54:48.876Z,57.64
2018-09-19T00:57:17.253Z,57.65
2018-09-19T00:59:45.736Z,58.80
2018-09-19T01:02:14.176Z,60.43
2018-09-19T01:04:42.481Z,58.42
2018-09-19T01:07:11.005Z,58.43
2018-09-19T01:09:39.353Z,57.30
2018-09-19T01:12:07.778Z,58.99
2018-09-19T01:14:36.220Z,59.99
2018-09-19T01:17:04.625Z,59.01
2018-09-19T01:19:33.012Z,59.05
2018-09-19T01:22:01.435Z,58.26
2018-09-19T01:24:29.777Z,57.98
2018-09-19T01:26:58.215Z,58.38
2018-09-19T01:29:26.699Z,60.28
2018-09-19T01:31:55.330Z,60.08
2018-09-19T01:34:23.738Z,59.38
2018-09-19T01:36:52.307Z,58.40
2018-09-19T01:39:20.719Z,58.71
2018-09-19T01:41:49.144Z,60.94
2018-09-19T01:44:17.523Z,59.71
2018-09-19T01:46:45.996Z,60.35
2018-09-19T01:49:14.368Z,59.94
2018-09-19T01:51:42.831Z,58.19
2018-09-19T01:54:11.285Z,60.64
2018-09-19T01:56:39.719Z,58.24
2018-09-19T01:59:08.021Z,58.57
2018-09-19T02:01:36.365Z,59.82
2018-09-19T02:04:04.759Z,59.24
2018-09-19T02:06:33.151Z,59.39
2018-09-19T02:09:01.525Z,60.46
2018-09-19T02:11:29.844Z,60.11
2018-09-19T02:13:58.241Z,60.70
2018-09-19T02:16:26.594Z,59.98
2018-09-19T02:18:54.990Z,59.58
2018-09-19T02:21:23.362Z,59.73
2018-09-19T02:23:51.802Z,57.84
2018-09-19T02:26:20.088Z,58.56
2018-09-19T02:28:48.488Z,58.90
2018-09-19T02:31:17.027Z,60.40
2018-09-19T02:33:45.568Z,59.13
2018-09-19T02:36:18.740Z,59.49
2018-09-19T02:38:47.580Z,58.72
2018-09-19T02:41:16.062Z,59.20
2018-09-19T02:43:44.538Z,58.93
2018-09-19T02:46:12.946Z,59.91
2018-09-19T02:48:41.407Z,58.90
2018-09-19T02:51:09.795Z,60.25
2018-09-19T02:53:39.171Z,60.09
2018-09-19T02:56:07.502Z,60.23
2018-09-19T02:58:35.762Z,60.44
2018-09-19T03:01:04.302Z,60.13
2018-09-19T03:03:32.648Z,61.03
2018-09-19T03:06:01.084Z,61.53
2018-09-19T03:08:29.631Z,60.76
2018-09-19T03:10:57.998Z,59.14
2018-09-19T03:13:26.400Z,59.91
2018-09-19T03:15:54.783Z,60.88
2018-09-19T03:18:23.388Z,60.49
2018-09-19T03:20:51.808Z,61.34
2018-09-19T03:23:20.197Z,60.46
2018-09-19T03:25:48.555Z,59.48
2018-09-19T03:28:16.993Z,60.15
2018-09-19T03:30:45.634Z,60.74
2018-09-19T03:33:14.058Z,62.21
2018-09-19T03:35:42.464Z,62.46
2018-09-19T03:38:10.871Z,61.20
2018-09-19T03:40:39.300Z,60.44
2018-09-19T03:43:07.727Z,60.46
2018-09-19T03:45:36.133Z,61.01
2018-09-19T03:48:04.507Z,61.17
2018-09-19T03:50:32.952Z,62.00
2018-09-19T03:53:01.343Z,62.01
2018-09-19T03:55:29.759Z,62.44
2018-09-19T03:57:58.144Z,61.13
2018-09-19T04:00:26.570Z,62.67
2018-09-19T04:02:54.931Z,61.36
2018-09-19T04:05:23.343Z,61.95
2018-09-19T04:07:51.716Z,61.62
2018-09-19T04:10:20.106Z,61.19
2018-09-19T04:12:48.574Z,62.21
2018-09-19T04:15:17.048Z,61.50
2018-09-19T04:20:51.526Z,60.85
2018-09-19T04:23:20.516Z,62.59
2018-09-19T04:25:48.874Z,62.30
2018-09-19T04:28:17.270Z,61.43
2018-09-19T04:30:45.548Z,62.05
2018-09-19T04:33:13.871Z,61.83
2018-09-19T04:35:42.245Z,62.37
2018-09-19T04:38:10.573Z,62.93
2018-09-19T04:40:38.903Z,63.74
2018-09-19T04:43:19.025Z,64.22
2018-09-19T04:45:47.326Z,63.88
2018-09-19T04:48:15.651Z,63.75
2018-09-19T04:50:44.055Z,63.90
2018-09-19T04:53:12.415Z,63.74
2018-09-19T04:55:40.745Z,64.01
2018-09-19T04:58:09.063Z,64.26
2018-09-19T05:00:37.548Z,62.14
2018-09-19T05:03:06.192Z,62.46
2018-09-19T05:05:34.730Z,62.24
2018-09-19T05:08:03.004Z,62.88
2018-09-19T05:10:31.323Z,64.80
2018-09-19T05:12:59.683Z,63.04
2018-09-19T05:15:28.181Z,63.19
2018-09-19T05:17:56.595Z,63.32
2018-09-19T05:20:25.088Z,63.11
2018-09-19T05:22:53.891Z,62.41
2018-09-19T05:25:22.256Z,63.05
2018-09-19T05:27:50.736Z,63.22
2018-09-19T05:30:19.284Z,62.84
2018-09-19T05:32:47.767Z,61.66
2018-09-19T05:35:16.634Z,62.05
2018-09-19T05:37:45.007Z,63.14
2018-09-19T05:40:13.634Z,61.02
2018-09-19T05:42:42.060Z,62.06
2018-09-19T05:45:10.540Z,61.72
2018-09-19T05:47:38.979Z,62.33
2018-09-19T05:50:07.373Z,61.45
2018-09-19T05:52:36.028Z,60.60
2018-09-19T05:55:04.541Z,60.27
2018-09-19T05:57:32.970Z,59.40
2018-09-19T06:00:02.611Z,59.47
2018-09-19T06:02:31.135Z,58.93
2018-09-19T06:04:59.681Z,59.54
2018-09-19T06:07:28.858Z,60.02
2018-09-19T06:09:57.268Z,57.71
2018-09-19T06:12:25.668Z,58.25
2018-09-19T06:14:54.109Z,57.51
2018-09-19T06:17:22.549Z,57.30
2018-09-19T06:19:51.150Z,57.48
2018-09-19T06:22:19.550Z,58.69
2018-09-19T06:24:48.003Z,59.16
2018-09-19T06:27:16.433Z,55.95
2018-09-19T06:29:44.927Z,53.04
2018-09-19T06:32:13.456Z,52.26
2018-09-19T06:34:41.924Z,49.83
2018-09-19T06:37:11.793Z,49.05
2018-09-19T06:39:40.219Z,47.33
2018-09-19T06:42:08.674Z,46.23
2018-09-19T06:44:37.262Z,42.07
2018-09-19T06:47:05.769Z,40.34
2018-09-19T06:49:34.173Z,39.90
2018-09-19T06:52:02.629Z,39.42
2018-09-19T06:54:31.003Z,41.69
2018-09-19T06:56:59.473Z,42.38
2018-09-19T06:59:27.869Z,39.92
2018-09-19T07:01:56.223Z,38.73
2018-09-19T07:04:24.631Z,35.04
2018-09-19T07:06:53.067Z,32.08
2018-09-19T07:09:21.497Z,31.74
2018-09-19T07:11:49.888Z,30.07
2018-09-19T07:14:18.236Z,30.15
2018-09-19T07:16:46.575Z,29.24
2018-09-19T07:19:15.116Z,29.03
2018-09-19T07:21:43.548Z,30.60
2018-09-19T07:24:11.986Z,29.69
2018-09-19T07:26:40.488Z,30.77
2018-09-19T07:29:08.899Z,28.59
2018-09-19T07:31:37.297Z,28.96
2018-09-19T07:34:06.302Z,29.15
2018-09-19T07:36:34.675Z,28.83
2018-09-19T07:39:03.203Z,31.36
2018-09-19T07:41:31.561Z,32.69
2018-09-19T07:44:00.107Z,32.79
2018-09-19T07:46:28.619Z,31.62
2018-09-19T07:48:57.024Z,31.87
2018-09-19T07:51:25.303Z,30.69
2018-09-19T07:53:53.642Z,29.03
2018-09-19T07:56:22.021Z,28.40
2018-09-19T07:58:50.495Z,31.35
2018-09-19T08:01:19.168Z,31.96
2018-09-19T08:03:47.512Z,33.85
2018-09-19T08:06:16.040Z,35.31
2018-09-19T08:08:44.382Z,34.47
2018-09-19T08:11:12.847Z,35.53
2018-09-19T08:13:41.237Z,33.68
2018-09-19T08:16:09.560Z,32.96
2018-09-19T08:18:37.904Z,31.50
2018-09-19T08:21:06.301Z,28.73
2018-09-19T08:23:34.673Z,28.18
2018-09-19T08:26:03.171Z,28.54
2018-09-19T08:28:31.537Z,28.84
2018-09-19T08:31:00.046Z,28.35
2018-09-19T08:33:28.484Z,28.92
2018-09-19T08:35:56.980Z,28.69
2018-09-19T08:38:25.467Z,30.46
2018-09-19T08:40:54.959Z,30.16
2018-09-19T08:43:23.396Z,28.91
2018-09-19T08:45:52.055Z,29.24
2018-09-19T08:48:20.580Z,29.37
2018-09-19T08:50:48.962Z,30.53
2018-09-19T08:53:17.566Z,29.69
2018-09-19T08:55:45.951Z,29.68
2018-09-19T08:58:14.392Z,30.90
2018-09-19T09:00:42.834Z,28.73
2018-09-19T09:03:11.252Z,27.68
2018-09-19T09:05:39.787Z,28.08
2018-09-19T09:08:08.446Z,28.17
2018-09-19T09:10:36.936Z,28.67
2018-09-19T09:13:05.373Z,28.41
2018-09-19T09:15:33.934Z,28.11
2018-09-19T09:18:02.348Z,29.08
2018-09-19T09:20:30.798Z,27.50
2018-09-19T09:22:59.188Z,28.12
2018-09-19T09:25:27.663Z,26.46
2018-09-19T09:27:56.095Z,28.52
2018-09-19T09:30:24.472Z,27.04
2018-09-19T09:32:52.932Z,28.87
2018-09-19T09:35:21.481Z,28.35
2018-09-19T09:37:49.914Z,26.77
2018-09-19T09:40:18.467Z,28.61
2018-09-19T09:42:46.780Z,27.12
2018-09-19T09:45:15.182Z,27.75
2018-09-19T09:47:43.577Z,27.08
2018-09-19T09:50:12.275Z,25.97
2018-09-19T09:52:40.618Z,27.16
2018-09-19T09:55:09.035Z,25.39
2018-09-19T09:57:37.385Z,26.32
2018-09-19T10:00:05.969Z,28.65
2018-09-19T10:02:34.329Z,27.27
2018-09-19T10:05:02.821Z,28.21
2018-09-19T10:07:31.230Z,28.87
2018-09-19T10:09:59.670Z,30.64
2018-09-19T10:12:27.956Z,29.65
2018-09-19T10:14:56.424Z,28.41
2018-09-19T10:17:24.789Z,28.64
2018-09-19T10:19:53.212Z,30.01
2018-09-19T10:22:21.576Z,30.24
2018-09-19T10:24:49.943Z,28.19
2018-09-19T10:27:18.284Z,27.91
2018-09-19T10:29:46.716Z,29.21
2018-09-19T10:32:15.125Z,30.32
2018-09-19T10:34:43.452Z,30.27
2018-09-19T10:37:11.854Z,30.27
2018-09-19T10:39:40.121Z,30.26
2018-09-19T10:42:08.736Z,31.62
2018-09-19T10:44:37.100Z,31.28
2018-09-19T10:47:05.394Z,32.58
2018-09-19T10:49:33.816Z,30.13
2018-09-19T10:52:02.143Z,30.81
2018-09-19T10:54:30.474Z,30.09
2018-09-19T10:56:58.829Z,31.01
2018-09-19T10:59:27.083Z,30.40
2018-09-19T11:01:55.415Z,29.92
2018-09-19T11:04:23.816Z,29.31
2018-09-19T11:06:52.160Z,27.12
2018-09-19T11:09:20.500Z,27.26
2018-09-19T11:11:48.821Z,27.90
2018-09-19T11:14:17.121Z,28.29
2018-09-19T11:16:48.484Z,29.82
2018-09-19T11:19:16.789Z,30.73
2018-09-19T11:21:45.103Z,29.19
2018-09-19T11:24:13.843Z,31.32
2018-09-19T11:26:42.249Z,31.91
2018-09-19T11:29:10.747Z,32.86
2018-09-19T11:31:39.808Z,31.29
2018-09-19T11:34:08.463Z,30.75
2018-09-19T11:36:36.866Z,29.12
2018-09-19T11:39:09.362Z,30.20
2018-09-19T11:41:37.704Z,29.12
2018-09-19T11:44:06.164Z,30.97
2018-09-19T11:46:34.520Z,31.89
2018-09-19T11:49:02.901Z,31.42
2018-09-19T11:51:31.349Z,32.47
2018-09-19T11:53:59.683Z,31.87
2018-09-19T11:56:28.081Z,33.56
2018-09-19T11:58:56.452Z,32.27
2018-09-19T12:01:25.291Z,33.52
2018-09-19T12:03:53.791Z,33.05
2018-09-19T12:06:22.369Z,30.61
2018-09-19T12:08:50.856Z,32.04
2018-09-19T12:11:19.299Z,31.25
2018-09-19T12:13:47.940Z,31.03
2018-09-19T12:16:16.389Z,31.79
2018-09-19T12:18:44.889Z,31.52
2018-09-19T12:21:13.509Z,30.14
2018-09-19T12:23:42.144Z,32.27
2018-09-19T12:26:10.701Z,34.17
2018-09-19T12:28:39.119Z,32.88
2018-09-19T12:31:08.420Z,34.71
2018-09-19T12:33:36.851Z,36.06
2018-09-19T12:36:05.263Z,36.02
2018-09-19T12:38:33.692Z,35.82
2018-09-19T12:41:02.141Z,36.19
2018-09-19T12:43:30.634Z,35.93
2018-09-19T12:45:59.230Z,37.37
2018-09-19T12:48:27.644Z,36.84
2018-09-19T12:50:56.087Z,36.19
2018-09-19T12:53:25.153Z,33.65
2018-09-19T12:55:54.373Z,33.84
2018-09-19T12:58:22.917Z,34.38
2018-09-19T13:00:51.780Z,35.58
2018-09-19T13:03:20.414Z,35.96
2018-09-19T13:05:48.862Z,36.17
2018-09-19T13:08:17.923Z,35.22
2018-09-19T13:10:46.408Z,35.47
2018-09-19T13:13:15.668Z,35.78
2018-09-19T13:15:44.032Z,36.95
2018-09-19T13:18:12.428Z,37.17
2018-09-19T13:20:40.918Z,36.86
2018-09-19T13:23:09.348Z,35.72
2018-09-19T13:25:37.797Z,35.83
2018-09-19T13:28:06.230Z,35.96
2018-09-19T13:30:34.670Z,35.05
2018-09-19T13:33:03.148Z,36.15
2018-09-19T13:35:31.544Z,36.09
2018-09-19T13:38:00.072Z,35.48
2018-09-19T13:40:28.545Z,36.58
2018-09-19T13:42:56.956Z,37.27
2018-09-19T13:45:25.347Z,38.05
2018-09-19T13:47:53.845Z,38.67
2018-09-19T13:51:32.955Z,37.93
2018-09-19T13:54:01.425Z,38.47
2018-09-19T13:56:29.876Z,38.41
2018-09-19T13:58:58.388Z,37.81
2018-09-19T14:01:26.786Z,36.62
2018-09-19T14:03:55.301Z,37.30
2018-09-19T14:06:23.769Z,37.15
2018-09-19T14:08:52.301Z,36.20
2018-09-19T14:11:20.663Z,37.49
2018-09-19T14:13:49.051Z,36.02
2018-09-19T14:16:17.397Z,37.19
2018-09-19T14:18:46.012Z,38.11
2018-09-19T14:21:14.451Z,36.26
2018-09-19T14:23:42.923Z,35.44
2018-09-19T14:26:11.579Z,36.24
2018-09-19T14:28:39.932Z,37.13
2018-09-19T14:31:08.264Z,36.56
2018-09-19T14:33:36.648Z,36.83
2018-09-19T14:36:05.132Z,35.67
2018-09-19T14:38:33.512Z,36.71
2018-09-19T14:41:01.884Z,36.06
2018-09-19T14:43:30.363Z,36.89
2018-09-19T14:45:58.733Z,37.97
2018-09-19T14:48:27.109Z,37.10
2018-09-19T14:50:55.405Z,37.57
2018-09-19T14:53:23.720Z,36.18
2018-09-19T14:55:52.023Z,37.25
2018-09-19T14:58:20.414Z,37.43
2018-09-19T15:00:48.775Z,38.20
2018-09-19T15:03:17.119Z,37.75
2018-09-19T15:05:45.588Z,37.69
2018-09-19T15:08:15.002Z,37.51
2018-09-19T15:10:43.409Z,37.38
2018-09-19T15:13:11.746Z,39.23
2018-09-19T15:15:40.116Z,38.65
2018-09-19T15:18:08.819Z,37.97
2018-09-19T15:20:37.053Z,38.80
2018-09-19T15:23:05.411Z,38.59
2018-09-19T15:25:33.808Z,39.50
2018-09-19T15:28:02.187Z,39.88
2018-09-19T15:30:30.540Z,38.39
2018-09-19T15:32:58.890Z,37.37
2018-09-19T15:35:27.202Z,38.21
2018-09-19T15:37:55.848Z,38.71
2018-09-19T15:40:24.251Z,39.04
2018-09-19T15:42:52.560Z,38.71
2018-09-19T15:45:22.255Z,38.92
2018-09-19T15:47:52.629Z,38.92
2018-09-19T15:50:20.924Z,37.49
2018-09-19T15:52:49.293Z,38.02
2018-09-19T15:55:17.763Z,38.63
2018-09-19T15:57:46.236Z,35.80
2018-09-19T16:00:15.049Z,39.24
2018-09-19T16:02:43.391Z,38.73
2018-09-19T16:05:11.891Z,38.43
2018-09-19T16:07:40.268Z,38.25
2018-09-19T16:10:08.677Z,38.47
2018-09-19T16:12:37.247Z,38.89
2018-09-19T16:15:05.607Z,39.18
2018-09-19T16:17:33.908Z,38.37
2018-09-19T16:20:02.236Z,38.58
2018-09-19T16:22:30.583Z,38.69
2018-09-19T16:24:58.973Z,39.47
2018-09-19T16:27:27.364Z,39.04
2018-09-19T16:29:55.676Z,37.31
2018-09-19T16:32:24.005Z,39.32
2018-09-19T16:34:52.389Z,39.45
2018-09-19T16:37:20.727Z,39.03
2018-09-19T16:39:49.054Z,40.51
2018-09-19T16:42:17.363Z,39.40
2018-09-19T16:44:45.634Z,39.85
2018-09-19T16:47:13.916Z,38.87
2018-09-19T16:49:42.199Z,39.92
2018-09-19T16:52:10.515Z,39.31
2018-09-19T16:54:38.838Z,39.46
2018-09-19T16:57:07.133Z,40.34
2018-09-19T16:59:35.599Z,39.81
2018-09-19T17:02:04.020Z,39.79
2018-09-19T17:04:32.319Z,40.70
2018-09-19T17:07:00.631Z,39.75
2018-09-19T17:09:29.012Z,39.49
2018-09-19T17:11:57.400Z,40.51
2018-09-19T17:14:25.688Z,40.40
2018-09-19T17:16:53.997Z,39.78
2018-09-19T17:19:22.363Z,40.21
2018-09-19T17:21:50.647Z,40.11
2018-09-19T17:24:18.968Z,40.49
2018-09-19T17:26:47.276Z,41.21
2018-09-19T17:29:15.883Z,41.47
2018-09-19T17:31:44.203Z,41.97
2018-09-19T17:34:12.531Z,42.21
2018-09-19T17:36:41.029Z,41.45
2018-09-19T17:39:10.951Z,41.71
2018-09-19T17:41:39.300Z,40.62
2018-09-19T17:44:07.799Z,41.79
2018-09-19T17:46:36.414Z,40.40
2018-09-19T17:49:04.920Z,41.77
2018-09-19T17:51:33.267Z,41.71
2018-09-19T17:54:01.624Z,41.40
2018-09-19T17:56:29.968Z,41.11
2018-09-19T17:58:58.364Z,42.25
2018-09-19T18:01:26.743Z,42.01
2018-09-19T18:03:55.140Z,41.05
2018-09-19T18:06:23.559Z,41.43
2018-09-19T18:08:52.157Z,41.12
2018-09-19T18:11:20.677Z,42.98
2018-09-19T18:13:49.233Z,42.05
2018-09-19T18:16:17.705Z,42.34
2018-09-19T18:18:46.182Z,43.21
2018-09-19T18:21:14.615Z,43.08
2018-09-19T18:23:43.032Z,44.04
2018-09-19T18:26:11.561Z,42.49
2018-09-19T18:28:40.201Z,42.02
2018-09-19T18:31:09.201Z,42.50
2018-09-19T18:33:37.973Z,42.98
2018-09-19T18:36:06.844Z,43.40
2018-09-19T18:38:35.499Z,44.41
2018-09-19T18:41:04.126Z,43.05
2018-09-19T18:43:32.619Z,43.89
2018-09-19T18:46:01.090Z,44.10
2018-09-19T18:48:30.285Z,42.38
2018-09-19T18:50:58.808Z,43.81
2018-09-19T18:53:27.191Z,44.35
2018-09-19T18:55:55.600Z,43.94
2018-09-19T18:58:24.051Z,44.72
2018-09-19T19:00:52.520Z,45.22
2018-09-19T19:03:21.018Z,45.44
2018-09-19T19:05:49.520Z,45.04
2018-09-19T19:08:18.951Z,45.02
2018-09-19T19:10:47.451Z,44.71
2018-09-19T19:13:16.027Z,46.07
2018-09-19T19:15:44.663Z,44.89
2018-09-19T19:18:13.211Z,44.28
2018-09-19T19:20:42.635Z,42.86
2018-09-19T19:23:11.103Z,43.76
2018-09-19T19:25:39.663Z,45.04
2018-09-19T19:28:08.205Z,43.79
2018-09-19T19:30:36.868Z,44.79
2018-09-19T19:33:05.168Z,45.37
2018-09-19T19:35:33.594Z,45.83
2018-09-19T19:38:02.124Z,44.76
2018-09-19T19:40:30.535Z,44.54
2018-09-19T19:42:59.241Z,45.90
2018-09-19T19:45:27.809Z,44.46
2018-09-19T19:47:56.532Z,44.30
2018-09-19T19:50:25.011Z,43.54
2018-09-19T19:52:53.491Z,44.78
2018-09-19T19:55:22.051Z,46.17
2018-09-19T19:57:50.630Z,44.84
2018-09-19T20:00:19.035Z,45.88
2018-09-19T20:02:47.508Z,46.50
2018-09-19T20:05:15.952Z,45.73
2018-09-19T20:07:44.713Z,47.33
2018-09-19T20:10:13.306Z,46.22
2018-09-19T20:12:41.784Z,45.56
2018-09-19T20:15:10.244Z,45.50
2018-09-19T20:17:39.324Z,47.72
2018-09-19T20:20:07.706Z,47.31
2018-09-19T20:22:36.133Z,47.35
2018-09-19T20:25:04.709Z,47.67
2018-09-19T20:27:33.099Z,46.51
2018-09-19T20:30:01.544Z,47.56
2018-09-19T20:32:29.929Z,47.59
2018-09-19T20:34:58.337Z,47.22
2018-09-19T20:37:26.744Z,47.93
2018-09-19T20:39:55.235Z,47.81
2018-09-19T20:42:23.760Z,48.08
2018-09-19T20:44:52.212Z,48.25
2018-09-19T20:47:20.678Z,49.73
2018-09-19T20:49:49.115Z,50.50
2018-09-19T20:52:17.526Z,50.01
2018-09-19T20:54:45.923Z,50.53
2018-09-19T20:57:14.397Z,51.19
2018-09-19T20:59:42.882Z,51.26
2018-09-19T21:02:11.289Z,52.13
2018-09-19T21:04:39.785Z,51.05
2018-09-19T21:07:08.153Z,51.56
2018-09-19T21:09:36.603Z,52.42
2018-09-19T21:12:05.008Z,52.08
2018-09-19T21:14:33.473Z,51.86
2018-09-19T21:17:01.867Z,52.71
2018-09-19T21:19:30.286Z,53.45
2018-09-19T21:21:59.021Z,53.09
2018-09-19T21:24:27.335Z,52.58
2018-09-19T21:26:55.839Z,53.37
2018-09-19T21:29:25.046Z,53.09
2018-09-19T21:31:53.533Z,55.50
2018-09-19T21:34:22.013Z,54.35
2018-09-19T21:36:50.523Z,54.64
2018-09-19T21:39:18.999Z,54.46
2018-09-19T21:41:47.636Z,55.17
2018-09-19T21:44:16.062Z,55.72
2018-09-19T21:46:44.475Z,55.34
2018-09-19T21:49:12.891Z,55.77
2018-09-19T21:51:41.435Z,56.14
2018-09-19T21:54:09.940Z,55.57
2018-09-19T21:56:38.736Z,57.33
2018-09-19T21:59:07.085Z,56.65
2018-09-19T22:01:41.367Z,57.50
2018-09-19T22:04:09.723Z,57.32
2018-09-19T22:06:38.546Z,57.99
2018-09-19T22:09:09.305Z,57.45
2018-09-19T22:11:37.923Z,56.95
2018-09-19T22:14:06.344Z,56.98
2018-09-19T22:16:34.692Z,57.65
2018-09-19T22:19:03.017Z,58.35
2018-09-19T22:21:31.753Z,57.96
2018-09-19T22:24:00.149Z,58.06
2018-09-19T22:26:28.656Z,58.76
2018-09-19T22:28:57.071Z,57.78
2018-09-19T22:31:25.748Z,58.66
2018-09-19T22:33:54.106Z,58.51
2018-09-19T22:36:22.479Z,58.37
2018-09-19T22:38:50.914Z,57.89
2018-09-19T22:41:19.861Z,58.11
2018-09-19T22:43:48.343Z,57.89
2018-09-19T22:46:16.761Z,57.07
2018-09-19T22:48:45.340Z,57.19
2018-09-19T22:51:13.839Z,58.11
2018-09-19T22:53:42.674Z,58.68
2018-09-19T22:56:11.138Z,58.92
2018-09-19T22:58:39.596Z,58.25
2018-09-19T23:01:08.044Z,60.01
2018-09-19T23:03:36.532Z,59.61
2018-09-19T23:06:04.899Z,58.45
2018-09-19T23:08:33.314Z,58.88
2018-09-19T23:11:01.711Z,58.84
2018-09-19T23:13:30.120Z,59.05
2018-09-19T23:15:58.537Z,58.12
2018-09-19T23:18:26.966Z,58.42
2018-09-19T23:20:55.376Z,58.88
2018-09-19T23:23:23.776Z,57.96
2018-09-19T23:25:52.223Z,56.88
2018-09-19T23:28:20.673Z,56.94
2018-09-19T23:30:49.041Z,56.51
2018-09-19T23:33:17.577Z,56.30
2018-09-19T23:35:46.080Z,55.60
2018-09-19T23:38:14.688Z,55.50
2018-09-19T23:40:43.214Z,56.73
2018-09-19T23:43:11.705Z,56.82
2018-09-19T23:45:40.393Z,55.93
2018-09-19T23:48:08.868Z,55.17
2018-09-19T23:50:37.312Z,56.06
2018-09-19T23:53:05.644Z,55.77
2018-09-19T23:55:33.992Z,55.82
2018-09-19T23:58:02.434Z,56.18
